Time;durP1;ratioP1;P1;durP2;ratioP2;P2;SDS_P1;SDS_P2;PMS_P1;PMS_P2;Temp;Humidity;BMP_temperature;BMP_pressure;BME280_temperature;BME280_humidity;BME280_pressure;Samples;Min_cycle;Max_cycle;Signal;HPM_P1;HPM_P2
2022/03/27 00:00:13;;;;;;;14.45;8.10;;;;;;;9.74;51.37;101757.69;5041399;28;20329;-69
2022/03/27 00:02:38;;;;;;;14.65;8.85;;;;;;;9.74;51.63;101755.06;5042865;28;20029;-69
2022/03/27 00:05:04;;;;;;;16.27;8.77;;;;;;;9.73;51.60;101761.31;5044476;28;20060;-69
2022/03/27 00:07:29;;;;;;;16.00;8.32;;;;;;;9.67;51.67;101752.03;5046796;28;20033;-69
2022/03/27 00:09:55;;;;;;;12.70;7.88;;;;;;;9.63;51.81;101744.44;5043667;28;20040;-69
2022/03/27 00:12:21;;;;;;;12.85;7.82;;;;;;;9.57;51.60;101753.69;5033995;28;20041;-69
2022/03/27 00:14:46;;;;;;;16.27;8.30;;;;;;;9.52;52.00;101750.56;5042144;28;20421;-69
2022/03/27 00:17:11;;;;;;;12.55;8.00;;;;;;;9.46;51.91;101748.38;5040583;28;20059;-69
2022/03/27 00:19:37;;;;;;;15.27;8.52;;;;;;;9.42;52.05;101760.13;5037132;28;20040;-69
2022/03/27 00:22:03;;;;;;;15.50;8.15;;;;;;;9.36;52.25;101756.97;5048858;28;20034;-69
2022/03/27 00:24:29;;;;;;;13.32;7.95;;;;;;;9.35;52.28;101749.19;5042376;28;20033;-69
2022/03/27 00:26:55;;;;;;;14.07;7.45;;;;;;;9.30;52.40;101752.16;5043985;28;20033;-69
2022/03/27 00:29:22;;;;;;;14.95;7.45;;;;;;;9.26;52.33;101750.69;5035529;28;20034;-69
2022/03/27 00:31:47;;;;;;;13.80;8.13;;;;;;;9.22;52.53;101754.50;5037626;28;20109;-69
2022/03/27 00:34:13;;;;;;;12.43;7.70;;;;;;;9.22;52.55;101751.84;5039946;28;20046;-69
2022/03/27 00:36:38;;;;;;;15.25;8.15;;;;;;;9.25;52.87;101754.28;5037146;28;20030;-69
2022/03/27 00:39:03;;;;;;;15.18;8.07;;;;;;;9.31;52.90;101756.47;5027674;28;20087;-69
2022/03/27 00:41:30;;;;;;;14.73;8.43;;;;;;;9.33;53.09;101746.63;5041632;28;20064;-69
2022/03/27 00:43:56;;;;;;;16.02;8.80;;;;;;;9.39;53.18;101753.28;5036607;28;20037;-69
2022/03/27 00:46:21;;;;;;;15.32;7.95;;;;;;;9.46;52.91;101754.50;5037431;28;20033;-69
2022/03/27 00:48:46;;;;;;;14.77;8.10;;;;;;;9.52;52.96;101754.03;5051170;28;20036;-69
2022/03/27 00:51:12;;;;;;;12.38;7.20;;;;;;;9.53;52.85;101752.22;5041949;28;20124;-69
2022/03/27 00:53:38;;;;;;;14.60;7.35;;;;;;;9.59;52.71;101753.59;5040188;28;20029;-69
2022/03/27 00:56:03;;;;;;;14.45;7.60;;;;;;;9.69;52.81;101757.22;5030733;28;20045;-69
2022/03/27 00:58:28;;;;;;;12.55;7.07;;;;;;;9.81;52.49;101753.63;5026309;28;20044;-69
2022/03/27 01:01:09;;;;;;;12.65;6.72;;;;;;;9.96;52.38;101746.34;5032054;28;20041;-69
2022/03/27 01:03:34;;;;;;;10.73;6.90;;;;;;;10.06;51.80;101741.19;5037003;28;20037;-69
2022/03/27 01:06:00;;;;;;;11.32;7.00;;;;;;;10.16;51.67;101740.34;5047506;28;20036;-69
2022/03/27 01:11:16;;;;;;;10.35;6.07;;;;;;;10.23;51.55;101745.19;5038331;28;20082;-69
2022/03/27 01:13:43;;;;;;;12.27;5.93;;;;;;;10.16;51.79;101743.00;5040638;28;20431;-69
2022/03/27 01:16:31;;;;;;;10.85;5.40;;;;;;;10.11;52.01;101739.88;5044569;28;20072;-69
2022/03/27 01:18:58;;;;;;;10.57;6.18;;;;;;;10.03;52.07;101728.22;5049904;28;20025;-69
2022/03/27 01:21:23;;;;;;;10.15;5.80;;;;;;;9.89;51.87;101727.50;5045219;28;20509;-69
2022/03/27 01:23:49;;;;;;;11.55;7.15;;;;;;;9.74;52.27;101732.13;5048033;28;20044;-69
2022/03/27 01:26:14;;;;;;;12.77;7.38;;;;;;;9.62;52.82;101727.78;5046792;28;20493;-69
2022/03/27 01:28:39;;;;;;;15.70;8.30;;;;;;;9.50;53.66;101718.16;5048272;28;20151;-69
2022/03/27 01:31:07;;;;;;;11.63;7.78;;;;;;;9.55;53.99;101729.19;5034691;28;20402;-69
2022/03/27 01:33:32;;;;;;;14.88;8.13;;;;;;;9.60;54.11;101723.56;5045604;28;20083;-69
2022/03/27 01:35:58;;;;;;;11.82;7.60;;;;;;;9.62;54.28;101721.66;5045281;28;20120;-69
2022/03/27 01:38:23;;;;;;;13.65;7.70;;;;;;;9.65;54.48;101716.13;5046831;28;20029;-69
2022/03/27 01:40:48;;;;;;;14.18;8.02;;;;;;;9.71;54.44;101721.81;5034924;28;20117;-69
2022/03/27 01:43:14;;;;;;;13.63;7.53;;;;;;;9.82;54.55;101710.44;5039015;28;20480;-69
2022/03/27 01:45:41;;;;;;;11.77;7.90;;;;;;;9.91;54.18;101708.84;5038665;28;20056;-69
2022/03/27 01:48:06;;;;;;;11.55;7.75;;;;;;;9.97;54.18;101708.41;5030783;28;20037;-69
2022/03/27 01:50:31;;;;;;;11.93;7.10;;;;;;;9.98;53.91;101708.25;5038332;28;20037;-69
2022/03/27 01:52:57;;;;;;;11.65;6.88;;;;;;;9.99;54.04;101706.47;5044079;28;20049;-69
2022/03/27 01:55:22;;;;;;;10.57;6.88;;;;;;;9.99;53.99;101707.31;5039339;28;20089;-69
2022/03/27 01:57:47;;;;;;;12.50;7.18;;;;;;;9.96;53.95;101699.63;5033088;28;20473;-69
2022/03/27 02:00:14;;;;;;;15.25;7.78;;;;;;;9.92;54.40;101702.63;5036351;28;20037;-69
2022/03/27 02:02:40;;;;;;;12.73;7.22;;;;;;;9.97;54.02;101703.13;5032515;28;20502;-69
2022/03/27 02:05:05;;;;;;;10.90;6.63;;;;;;;10.01;54.05;101704.56;5042430;28;20044;-69
2022/03/27 02:07:39;;;;;;;15.93;7.20;;;;;;;10.10;53.79;101705.63;5043782;28;20041;-69
2022/03/27 02:10:05;;;;;;;11.20;7.00;;;;;;;10.18;53.53;101708.53;5024502;28;20029;-69
2022/03/27 02:12:35;;;;;;;10.23;6.05;;;;;;;10.23;53.54;101701.06;5034822;28;20041;-69
2022/03/27 02:15:09;;;;;;;11.52;6.47;;;;;;;10.32;53.41;101705.69;5038148;28;20033;-69
2022/03/27 02:17:38;;;;;;;10.38;6.43;;;;;;;10.37;53.19;101703.50;5037061;28;20440;-69
2022/03/27 02:20:05;;;;;;;12.07;6.40;;;;;;;10.42;53.08;101697.84;5038400;28;20029;-70
2022/03/27 02:22:31;;;;;;;9.50;6.05;;;;;;;10.40;53.20;101694.47;5039278;28;20041;-69
2022/03/27 02:24:56;;;;;;;10.80;6.68;;;;;;;10.43;53.47;101696.03;5031499;28;20099;-69
2022/03/27 02:27:21;;;;;;;11.00;6.65;;;;;;;10.40;53.37;101695.31;5031411;28;20044;-69
2022/03/27 02:29:47;;;;;;;8.85;5.75;;;;;;;10.30;53.75;101694.38;5037960;28;20044;-69
2022/03/27 02:32:14;;;;;;;9.00;5.97;;;;;;;10.25;53.95;101691.22;5036309;28;20041;-69
2022/03/27 02:34:40;;;;;;;9.65;6.05;;;;;;;10.20;54.01;101696.00;5037734;28;20037;-69
2022/03/27 02:37:05;;;;;;;8.63;5.82;;;;;;;10.12;54.19;101688.69;5034856;28;20415;-69
2022/03/27 02:39:31;;;;;;;8.35;5.60;;;;;;;10.05;54.34;101697.22;5029338;28;20097;-69
2022/03/27 02:41:56;;;;;;;7.93;5.97;;;;;;;9.98;54.94;101695.03;5041602;28;20057;-69
2022/03/27 02:44:22;;;;;;;9.32;6.00;;;;;;;9.95;55.39;101702.38;5039836;28;20131;-69
2022/03/27 02:46:48;;;;;;;12.57;6.78;;;;;;;9.94;55.43;101696.28;5034852;28;20046;-69
2022/03/27 02:49:13;;;;;;;11.73;7.15;;;;;;;9.94;55.61;101701.56;5045000;28;20033;-69
2022/03/27 02:51:40;;;;;;;10.48;7.05;;;;;;;9.87;55.88;101696.88;5031808;28;20124;-69
2022/03/27 02:54:06;;;;;;;12.30;6.32;;;;;;;9.84;55.84;101691.78;5034987;28;20120;-69
2022/03/27 02:56:32;;;;;;;10.25;5.90;;;;;;;9.82;56.11;101691.94;5038121;28;20036;-69
2022/03/27 02:58:57;;;;;;;11.23;6.95;;;;;;;9.86;56.45;101692.53;5037138;28;20093;-69
2022/03/27 03:01:23;;;;;;;11.85;6.35;;;;;;;9.95;56.29;101692.66;5038841;28;20136;-69
2022/03/27 03:03:48;;;;;;;11.40;6.93;;;;;;;10.02;56.41;101690.38;5046415;28;20048;-69
2022/03/27 03:06:14;;;;;;;11.98;6.40;;;;;;;10.06;56.16;101694.47;5044033;28;20564;-69
2022/03/27 03:08:39;;;;;;;9.98;6.38;;;;;;;10.04;56.35;101692.91;5041026;28;20029;-69
2022/03/27 03:11:05;;;;;;;11.60;6.90;;;;;;;10.04;56.53;101695.56;5041379;28;20279;-69
2022/03/27 03:13:31;;;;;;;9.25;6.38;;;;;;;10.06;56.86;101689.19;5041422;28;20063;-69
2022/03/27 03:15:57;;;;;;;13.18;7.63;;;;;;;10.10;56.82;101697.69;5038357;28;20037;-69
2022/03/27 03:18:24;;;;;;;13.07;7.05;;;;;;;10.16;56.95;101700.72;5037973;28;20033;-69
2022/03/27 03:20:49;;;;;;;13.40;7.03;;;;;;;10.21;56.98;101698.53;5046738;28;20114;-69
2022/03/27 03:23:15;;;;;;;14.38;7.60;;;;;;;10.21;57.03;101698.53;5039511;28;20037;-69
2022/03/27 03:25:42;;;;;;;12.35;7.15;;;;;;;10.23;56.89;101703.72;5040459;28;20033;-69
2022/03/27 03:28:09;;;;;;;11.82;7.70;;;;;;;10.29;57.14;101697.13;5037710;28;20060;-70
2022/03/27 03:30:34;;;;;;;12.75;8.02;;;;;;;10.35;57.08;101705.44;5033551;28;20070;-69
2022/03/27 03:32:59;;;;;;;12.82;7.80;;;;;;;10.37;57.04;101705.31;5043824;28;20037;-69
2022/03/27 03:35:25;;;;;;;12.23;6.90;;;;;;;10.39;57.01;101706.00;5031364;28;20038;-69
2022/03/27 03:37:50;;;;;;;11.82;7.47;;;;;;;10.40;56.96;101707.72;5042342;28;20121;-69
2022/03/27 03:40:15;;;;;;;12.80;7.70;;;;;;;10.39;57.10;101706.00;5039980;28;20116;-69
2022/03/27 03:42:41;;;;;;;12.43;7.93;;;;;;;10.35;57.13;101710.72;5041845;28;20538;-69
2022/03/27 03:45:06;;;;;;;13.63;7.80;;;;;;;10.32;57.37;101699.53;5043508;28;20441;-69
2022/03/27 03:47:32;;;;;;;11.57;7.03;;;;;;;10.26;57.61;101707.91;5043554;28;20174;-69
2022/03/27 03:49:57;;;;;;;12.30;8.02;;;;;;;10.25;57.53;101696.53;5046949;28;20029;-69
2022/03/27 03:52:22;;;;;;;11.50;7.70;;;;;;;10.20;57.77;101711.88;5042942;28;20091;-69
2022/03/27 03:54:48;;;;;;;12.15;7.25;;;;;;;10.14;57.87;101701.78;5043201;28;20034;-69
2022/03/27 03:57:14;;;;;;;14.63;8.20;;;;;;;10.13;57.90;101702.75;5041721;28;20058;-69
2022/03/27 03:59:39;;;;;;;11.95;7.45;;;;;;;10.10;58.03;101709.09;5044882;28;20038;-69
2022/03/27 04:02:06;;;;;;;11.45;7.25;;;;;;;10.05;58.29;101700.69;5034612;28;20397;-69
2022/03/27 04:04:32;;;;;;;11.68;7.40;;;;;;;10.04;58.47;101692.91;5036515;28;20038;-69
2022/03/27 04:06:58;;;;;;;12.57;7.70;;;;;;;10.06;58.51;101699.75;5048585;28;20303;-69
2022/03/27 04:09:24;;;;;;;10.90;7.50;;;;;;;10.08;58.91;101694.34;5040558;28;20032;-69
2022/03/27 04:11:50;;;;;;;12.07;7.72;;;;;;;10.06;58.68;101697.13;5041989;28;20409;-69
2022/03/27 04:14:15;;;;;;;11.68;7.57;;;;;;;10.05;58.77;101697.22;5039697;28;20033;-69
2022/03/27 04:16:41;;;;;;;12.00;7.28;;;;;;;10.04;58.82;101700.84;5034237;28;20041;-69
2022/03/27 04:19:06;;;;;;;13.35;7.82;;;;;;;10.02;59.07;101694.81;5031334;28;20037;-69
2022/03/27 04:21:31;;;;;;;13.43;7.68;;;;;;;10.04;58.70;101698.19;5032532;28;20069;-69
2022/03/27 04:23:57;;;;;;;11.23;7.30;;;;;;;10.00;58.81;101692.28;5042681;28;20037;-69
2022/03/27 04:26:22;;;;;;;11.60;7.68;;;;;;;9.95;59.12;101694.47;5043608;28;20311;-69
2022/03/27 04:28:48;;;;;;;11.57;7.40;;;;;;;9.94;59.01;101701.56;5037008;28;20490;-69
2022/03/27 04:31:13;;;;;;;16.33;9.02;;;;;;;9.92;59.19;101706.09;5036099;28;20041;-69
2022/03/27 04:33:38;;;;;;;12.60;7.90;;;;;;;9.94;59.17;101698.06;5039951;28;20033;-69
2022/03/27 04:36:05;;;;;;;12.88;7.82;;;;;;;9.94;59.42;101706.00;5035562;28;20025;-69
2022/03/27 04:38:32;;;;;;;12.63;8.25;;;;;;;9.94;59.49;101706.00;5036142;28;20057;-69
2022/03/27 04:40:57;;;;;;;13.73;8.07;;;;;;;9.92;59.38;101700.00;5041221;28;20052;-69
2022/03/27 04:43:23;;;;;;;11.57;7.40;;;;;;;9.89;59.61;101703.72;5039429;28;20033;-69
2022/03/27 04:45:49;;;;;;;11.88;7.80;;;;;;;9.83;59.80;101704.16;5038623;28;20076;-69
2022/03/27 04:48:14;;;;;;;11.07;7.78;;;;;;;9.85;59.75;101704.91;5045856;28;20040;-69
2022/03/27 04:50:40;;;;;;;13.35;7.85;;;;;;;9.84;59.76;101705.84;5039612;28;20029;-69
2022/03/27 04:53:05;;;;;;;12.10;7.55;;;;;;;9.85;59.51;101699.63;5033538;28;20029;-69
2022/03/27 04:55:31;;;;;;;12.20;8.00;;;;;;;9.85;59.61;101698.78;5034210;28;20132;-69
2022/03/27 04:57:56;;;;;;;11.80;7.32;;;;;;;9.81;60.01;101711.38;5033116;28;20037;-69
2022/03/27 05:00:21;;;;;;;12.45;7.70;;;;;;;9.81;59.76;101713.19;5029389;28;20067;-69
2022/03/27 05:02:47;;;;;;;11.25;7.20;;;;;;;9.72;59.76;101709.44;5043638;28;20033;-69
2022/03/27 05:05:13;;;;;;;10.45;7.45;;;;;;;9.55;60.72;101716.81;5040593;28;20036;-69
2022/03/27 05:07:40;;;;;;;11.30;6.55;;;;;;;9.54;60.08;101715.16;5047248;28;20025;-69
2022/03/27 05:10:06;;;;;;;9.77;6.80;;;;;;;9.48;60.32;101720.88;5037265;28;20035;-69
2022/03/27 05:12:32;;;;;;;8.75;5.82;;;;;;;9.43;60.07;101725.69;5038704;28;20037;-69
2022/03/27 05:14:57;;;;;;;9.55;6.30;;;;;;;9.36;60.13;101721.81;5038771;28;20393;-69
2022/03/27 05:17:23;;;;;;;11.38;6.88;;;;;;;9.36;60.30;101729.72;5031699;28;20468;-69
2022/03/27 05:19:48;;;;;;;12.45;6.55;;;;;;;9.32;60.40;101721.22;5034627;28;20065;-69
2022/03/27 05:22:14;;;;;;;9.07;5.75;;;;;;;9.32;60.20;101734.41;5043853;28;20029;-69
2022/03/27 05:24:39;;;;;;;8.48;5.55;;;;;;;9.25;59.96;101729.72;5039366;28;20489;-69
2022/03/27 05:27:05;;;;;;;8.80;5.53;;;;;;;9.16;60.02;101725.94;5031747;28;20049;-69
2022/03/27 05:29:30;;;;;;;7.57;5.30;;;;;;;9.06;60.26;101723.13;5039572;28;20107;-69
2022/03/27 05:31:57;;;;;;;8.88;6.00;;;;;;;8.96;60.52;101730.00;5047171;28;20576;-69
2022/03/27 05:34:23;;;;;;;8.38;5.78;;;;;;;8.87;60.53;101734.19;5035067;28;20040;-69
2022/03/27 05:36:48;;;;;;;7.35;4.85;;;;;;;8.81;60.58;101726.69;5041055;28;20166;-69
2022/03/27 05:39:13;;;;;;;8.60;5.30;;;;;;;8.78;60.43;101731.38;5037396;28;20041;-69
2022/03/27 05:41:39;;;;;;;7.57;5.13;;;;;;;8.74;60.72;101740.44;5032597;28;20490;-69
2022/03/27 05:44:05;;;;;;;7.55;5.10;;;;;;;8.72;61.44;101740.53;5035516;28;20106;-69
2022/03/27 05:46:30;;;;;;;8.88;6.00;;;;;;;8.71;61.51;101739.72;5036851;28;20052;-69
2022/03/27 05:48:55;;;;;;;10.82;6.78;;;;;;;8.78;61.72;101737.47;5040696;28;20128;-69
2022/03/27 05:51:21;;;;;;;9.23;6.20;;;;;;;8.80;61.75;101745.28;5047227;28;20040;-70
2022/03/27 05:53:46;;;;;;;11.63;6.95;;;;;;;8.83;61.73;101739.78;5031580;28;20042;-70
2022/03/27 05:56:11;;;;;;;9.95;6.80;;;;;;;8.88;61.28;101742.94;5033229;28;20136;-70
2022/03/27 05:58:39;;;;;;;10.13;6.88;;;;;;;8.92;61.13;101742.59;5027892;28;20083;-70
2022/03/27 06:01:05;;;;;;;11.80;7.22;;;;;;;8.99;61.42;101748.28;5031045;28;20037;-70
2022/03/27 06:03:31;;;;;;;10.13;7.00;;;;;;;9.07;61.39;101756.47;5039708;28;20030;-70
2022/03/27 06:05:56;;;;;;;12.57;6.78;;;;;;;9.36;61.25;101759.59;5036565;28;20051;-70
2022/03/27 06:08:22;;;;;;;13.55;7.40;;;;;;;9.71;61.07;101750.84;5031289;28;20503;-71
2022/03/27 06:10:48;;;;;;;12.60;7.53;;;;;;;9.93;60.44;101757.97;5044210;28;20049;-70
2022/03/27 06:13:14;;;;;;;11.05;7.20;;;;;;;10.10;60.03;101759.31;5031829;28;20306;-70
2022/03/27 06:15:40;;;;;;;11.45;7.30;;;;;;;10.38;59.89;101767.81;5032247;28;20146;-70
2022/03/27 06:18:10;;;;;;;12.23;7.93;;;;;;;10.56;58.93;101771.66;5036780;28;20100;-70
2022/03/27 06:20:35;;;;;;;12.80;8.07;;;;;;;10.78;58.83;101764.66;5041987;28;20143;-71
2022/03/27 06:23:01;;;;;;;11.38;7.30;;;;;;;10.93;58.48;101767.88;5039061;28;20033;-71
2022/03/27 06:25:28;;;;;;;11.80;7.32;;;;;;;11.09;58.44;101767.47;5040362;28;20033;-71
2022/03/27 06:27:54;;;;;;;11.35;7.28;;;;;;;11.29;57.91;101774.63;5039910;28;20041;-71
2022/03/27 06:30:22;;;;;;;9.90;6.72;;;;;;;11.63;57.50;101775.34;5033298;28;20076;-70
2022/03/27 06:32:49;;;;;;;8.75;5.85;;;;;;;11.96;56.79;101781.44;5031401;28;20048;-70
2022/03/27 06:35:15;;;;;;;10.68;6.35;;;;;;;12.25;56.41;101772.78;5032048;28;20390;-70
2022/03/27 06:37:41;;;;;;;9.90;7.00;;;;;;;12.45;54.79;101777.22;5032865;28;20371;-69
2022/03/27 06:40:08;;;;;;;11.45;7.45;;;;;;;12.57;53.83;101780.63;5038584;28;20036;-70
2022/03/27 06:42:33;;;;;;;10.95;7.20;;;;;;;12.86;53.82;101779.88;5037054;28;20033;-70
2022/03/27 06:44:59;;;;;;;10.45;7.35;;;;;;;13.03;52.58;101781.03;5033023;28;20041;-70
2022/03/27 06:47:26;;;;;;;9.48;6.95;;;;;;;13.20;52.70;101771.53;5040644;28;20033;-70
2022/03/27 06:49:53;;;;;;;10.10;6.47;;;;;;;13.59;52.83;101775.94;5033729;28;20045;-70
2022/03/27 06:52:19;;;;;;;11.02;7.55;;;;;;;13.76;52.21;101774.38;5036886;28;20061;-70
2022/03/27 06:54:45;;;;;;;10.60;6.97;;;;;;;13.96;51.40;101783.16;5037053;28;20065;-70
2022/03/27 06:57:11;;;;;;;9.55;6.65;;;;;;;14.03;51.21;101775.44;5042134;28;20057;-68
2022/03/27 07:05:05;;;;;;;10.55;7.40;;;;;;;14.60;50.01;101780.72;5031696;28;20098;-70
2022/03/27 07:07:30;;;;;;;8.70;6.10;;;;;;;14.87;49.96;101779.88;5039396;28;20025;-70
2022/03/27 07:12:25;;;;;;;9.77;5.63;;;;;;;15.60;48.68;101778.94;5002215;28;20037;-67
2022/03/27 07:14:51;;;;;;;8.77;5.50;;;;;;;15.93;48.37;101782.72;5008643;28;20116;-67
2022/03/27 07:17:17;;;;;;;9.45;6.28;;;;;;;16.27;47.22;101782.75;5009149;28;20061;-68
2022/03/27 07:19:43;;;;;;;7.78;5.30;;;;;;;16.76;46.68;101785.66;5014667;28;20513;-68
2022/03/27 07:22:09;;;;;;;7.85;5.85;;;;;;;17.01;44.72;101772.41;5027795;28;20082;-68
2022/03/27 07:24:34;;;;;;;7.75;6.00;;;;;;;17.17;44.27;101779.63;5008952;28;20465;-68
2022/03/27 07:26:59;;;;;;;6.95;5.68;;;;;;;17.29;43.84;101778.31;5009312;28;20481;-68
2022/03/27 07:29:25;;;;;;;9.98;6.82;;;;;;;17.23;43.20;101788.81;5018998;28;20548;-68
2022/03/27 07:31:50;;;;;;;9.63;6.55;;;;;;;17.21;42.97;101778.31;5028875;28;20045;-68
2022/03/27 07:34:16;;;;;;;9.82;6.68;;;;;;;17.44;42.51;101783.00;5019696;28;20536;-68
2022/03/27 07:36:42;;;;;;;9.90;6.60;;;;;;;17.53;41.70;101779.31;5011176;28;20037;-68
2022/03/27 07:39:09;;;;;;;7.63;5.75;;;;;;;17.83;41.81;101788.56;5032243;28;20486;-68
2022/03/27 07:41:34;;;;;;;8.80;6.25;;;;;;;18.19;41.48;101789.00;5032098;28;20080;-68
2022/03/27 07:44:00;;;;;;;9.45;6.90;;;;;;;18.44;40.72;101792.41;5031846;28;20060;-68
2022/03/27 07:46:25;;;;;;;7.97;5.70;;;;;;;18.90;40.28;101802.47;5031852;28;20071;-68
2022/03/27 07:48:50;;;;;;;7.05;5.25;;;;;;;19.26;40.13;101791.22;5031307;28;20287;-68
2022/03/27 07:51:16;;;;;;;7.80;6.25;;;;;;;19.55;39.42;101798.53;5032083;28;20457;-68
2022/03/27 07:53:42;;;;;;;8.35;5.53;;;;;;;19.95;39.86;101793.88;5028883;28;20145;-68
2022/03/27 07:56:07;;;;;;;8.20;5.50;;;;;;;20.33;39.83;101793.78;5030925;28;20032;-68
2022/03/27 07:58:32;;;;;;;6.70;5.07;;;;;;;20.94;39.31;101793.56;5031828;28;20041;-68
2022/03/27 08:00:58;;;;;;;6.78;4.72;;;;;;;21.40;38.95;101799.47;5009023;28;20502;-68
2022/03/27 08:03:23;;;;;;;5.55;4.55;;;;;;;21.72;38.75;101794.56;5036554;28;20060;-68
2022/03/27 08:05:48;;;;;;;6.40;4.97;;;;;;;22.03;38.02;101793.34;5029103;28;20042;-68
2022/03/27 08:08:14;;;;;;;7.72;5.75;;;;;;;22.25;37.24;101794.16;5014153;28;20045;-68
2022/03/27 08:10:39;;;;;;;8.00;5.67;;;;;;;22.40;36.22;101791.31;5022603;28;20061;-68
2022/03/27 08:13:04;;;;;;;8.38;5.97;;;;;;;22.51;36.36;101793.47;5035199;28;20299;-68
2022/03/27 08:15:30;;;;;;;7.28;5.47;;;;;;;22.89;35.96;101785.72;5033180;28;20030;-68
2022/03/27 08:17:55;;;;;;;9.18;6.95;;;;;;;22.97;35.19;101791.97;5030560;28;20036;-68
2022/03/27 08:20:22;;;;;;;9.38;6.70;;;;;;;22.88;34.56;101791.31;5030475;28;20096;-68
2022/03/27 08:22:47;;;;;;;8.35;5.50;;;;;;;23.15;34.84;101791.44;5010407;28;20402;-68
2022/03/27 08:26:55;;;;;;;6.80;4.78;;;;;;;23.70;34.38;101781.31;5030113;28;20271;-69
2022/03/27 08:27:58;;;;;;;6.75;5.28;;;;;;;24.13;33.56;101788.97;5030940;28;20077;-69
2022/03/27 08:30:24;;;;;;;5.35;4.13;;;;;;;24.56;33.40;101794.69;5026223;28;20438;-69
2022/03/27 08:32:49;;;;;;;7.85;6.18;;;;;;;24.64;32.80;101793.63;5008404;28;20041;-68
2022/03/27 08:35:15;;;;;;;7.10;5.80;;;;;;;24.31;32.00;101796.41;5026329;28;20321;-68
2022/03/27 08:37:40;;;;;;;7.75;5.57;;;;;;;24.19;31.78;101782.72;5030647;28;20148;-68
2022/03/27 08:40:06;;;;;;;9.18;6.72;;;;;;;24.34;31.50;101790.59;5031368;28;20110;-69
2022/03/27 08:42:31;;;;;;;8.55;6.05;;;;;;;24.52;31.64;101790.75;5027149;28;20037;-69
2022/03/27 08:44:57;;;;;;;5.97;4.65;;;;;;;25.13;31.31;101789.41;5030048;28;20036;-69
2022/03/27 08:47:26;;;;;;;6.63;4.72;;;;;;;25.83;30.45;101783.88;5036263;28;20575;-69
2022/03/27 08:50:19;;;;;;;6.20;4.13;;;;;;;26.60;30.43;101788.13;5023311;28;20038;-68
2022/03/27 08:52:57;;;;;;;6.80;5.10;;;;;;;27.13;29.18;101786.59;5032585;28;20139;-69
2022/03/27 08:55:29;;;;;;;6.20;5.53;;;;;;;27.60;28.91;101787.56;5025079;28;20030;-69
2022/03/27 08:58:00;;;;;;;5.97;4.60;;;;;;;28.10;27.93;101787.09;5030645;28;20140;-69
2022/03/27 09:00:28;;;;;;;;;;;;;;;28.52;27.81;101789.63;5027208;28;20033;-68
2022/03/27 09:02:54;;;;;;;6.88;5.00;;;;;;;28.90;27.02;101785.47;5030897;28;19917;-69
2022/03/27 09:05:22;;;;;;;6.55;5.00;;;;;;;29.10;26.83;101785.03;5028705;28;20033;-70
2022/03/27 09:07:48;;;;;;;5.82;4.43;;;;;;;29.43;26.51;101786.97;5013431;28;20183;-69
2022/03/27 09:10:14;;;;;;;6.68;4.65;;;;;;;29.69;26.57;101790.13;5018044;28;20037;-68
2022/03/27 09:12:40;;;;;;;6.97;4.28;;;;;;;29.70;25.58;101788.22;5030477;28;20436;-67
2022/03/27 09:15:08;;;;;;;8.23;5.57;;;;;;;29.73;25.41;101785.84;5031089;28;20073;-67
2022/03/27 09:18:04;;;;;;;7.45;5.03;;;;;;;30.24;24.80;101777.53;5029472;28;20045;-67
2022/03/27 09:20:35;;;;;;;5.10;3.75;;;;;;;31.09;24.58;101783.47;5026282;28;20041;-68
2022/03/27 09:23:30;;;;;;;5.32;4.40;;;;;;;31.29;24.04;101782.81;5025185;28;20278;-68
2022/03/27 09:26:01;;;;;;;5.63;4.30;;;;;;;31.48;23.53;101783.25;5031673;28;20069;-68
2022/03/27 09:28:31;;;;;;;5.97;4.43;;;;;;;31.81;23.13;101782.13;5031042;28;20049;-68
2022/03/27 09:30:59;;;;;;;7.20;5.53;;;;;;;31.70;22.38;101777.66;5031180;28;20160;-68
2022/03/27 09:33:46;;;;;;;6.40;4.47;;;;;;;32.42;21.65;101770.69;5030165;28;20030;-70
2022/03/27 09:36:13;;;;;;;5.28;4.28;;;;;;;32.29;21.70;101772.00;5029024;28;20030;-69
2022/03/27 09:38:39;;;;;;;7.65;4.63;;;;;;;32.21;21.33;101766.22;5025273;28;20049;-69
2022/03/27 09:41:07;;;;;;;5.60;4.28;;;;;;;32.50;21.59;101761.97;5022065;28;20048;-69
2022/03/27 09:43:33;;;;;;;7.32;4.43;;;;;;;32.84;21.04;101763.41;5027428;28;20030;-69
2022/03/27 09:46:01;;;;;;;6.55;4.85;;;;;;;32.59;20.33;101765.00;5030362;28;20037;-69
2022/03/27 09:48:28;;;;;;;7.50;5.10;;;;;;;32.65;20.60;101760.38;5031227;28;20030;-69
2022/03/27 09:51:03;;;;;;;4.68;3.95;;;;;;;33.52;20.26;101758.53;5025177;28;20509;-69
2022/03/27 09:53:30;;;;;;;6.25;4.47;;;;;;;34.07;19.43;101761.41;5013571;28;20040;-69
2022/03/27 09:55:56;;;;;;;5.93;4.43;;;;;;;34.33;19.26;101756.66;5029217;28;20040;-69
2022/03/27 09:58:36;;;;;;;5.47;4.03;;;;;;;34.72;19.24;101753.16;5024442;28;20124;-69
2022/03/27 10:01:17;;;;;;;4.50;3.38;;;;;;;34.85;19.10;101752.53;5028153;28;20096;-69
2022/03/27 10:03:57;;;;;;;6.20;3.80;;;;;;;35.46;18.17;101751.19;5026573;28;20033;-69
2022/03/27 10:06:37;;;;;;;6.90;4.43;;;;;;;35.67;17.42;101759.28;5010764;28;20029;-69
2022/03/27 10:09:10;;;;;;;4.20;3.60;;;;;;;36.05;17.25;101751.97;5012727;28;20101;-69
2022/03/27 10:11:37;;;;;;;7.60;5.18;;;;;;;35.79;16.18;101748.69;5028842;28;20679;-69
2022/03/27 10:14:04;;;;;;;4.53;3.72;;;;;;;35.76;16.76;101737.47;5029232;28;20041;-69
2022/03/27 10:16:33;;;;;;;4.85;3.72;;;;;;;35.98;17.00;101739.66;5028048;28;20030;-69
2022/03/27 10:19:12;;;;;;;5.18;3.88;;;;;;;35.35;17.02;101738.69;5022933;28;20445;-69
2022/03/27 10:21:42;;;;;;;4.47;3.60;;;;;;;34.89;17.14;101734.34;5019495;28;20405;-69
2022/03/27 10:24:15;;;;;;;4.15;3.20;;;;;;;35.77;16.97;101733.59;5029057;28;20045;-70
2022/03/27 10:26:43;;;;;;;6.10;4.43;;;;;;;35.34;16.21;101722.47;5028873;28;20132;-69
2022/03/27 10:29:10;;;;;;;5.00;3.47;;;;;;;34.93;17.01;101723.63;5030695;28;20038;-69
2022/03/27 10:31:35;;;;;;;4.75;3.60;;;;;;;35.73;16.52;101723.16;5028645;28;20064;-67
2022/03/27 10:34:02;;;;;;;4.15;3.20;;;;;;;35.70;16.35;101718.22;5029018;28;20061;-69
2022/03/27 10:36:45;;;;;;;5.45;3.55;;;;;;;36.03;16.25;101710.13;5009914;28;20402;-69
2022/03/27 10:39:25;;;;;;;3.67;2.80;;;;;;;36.53;15.93;101712.50;5028960;28;20042;-69
2022/03/27 10:42:09;;;;;;;5.43;3.90;;;;;;;36.84;15.47;101707.34;5011376;28;20346;-69
2022/03/27 10:44:56;;;;;;;4.38;2.95;;;;;;;37.32;15.33;101700.75;5008682;28;20121;-69
2022/03/27 10:47:24;;;;;;;3.97;2.90;;;;;;;38.05;14.71;101707.34;5004764;28;20042;-69
2022/03/27 10:50:01;;;;;;;8.00;4.97;;;;;;;38.30;13.88;101705.94;4999400;28;20378;-69
2022/03/27 10:52:31;;;;;;;4.75;3.25;;;;;;;38.41;14.37;101701.00;5008731;28;20495;-69
2022/03/27 10:55:01;;;;;;;4.78;3.55;;;;;;;38.10;14.00;101698.13;5007898;28;20406;-69
2022/03/27 10:57:38;;;;;;;5.05;3.38;;;;;;;38.23;13.91;101698.09;5023524;28;20026;-69
2022/03/27 11:00:06;;;;;;;6.93;4.95;;;;;;;38.73;13.17;101694.41;5011460;28;20062;-69
2022/03/27 11:02:49;;;;;;;5.35;3.40;;;;;;;38.82;13.48;101695.31;5008201;28;20120;-68
2022/03/27 11:05:35;;;;;;;5.05;3.40;;;;;;;38.10;14.19;101693.41;5008574;28;20346;-68
2022/03/27 11:08:16;;;;;;;3.85;2.90;;;;;;;38.50;14.06;101682.56;4999392;28;20410;-69
2022/03/27 11:10:45;;;;;;;4.72;2.88;;;;;;;39.34;13.78;101686.50;5006590;28;20168;-69
2022/03/27 11:13:30;;;;;;;4.55;3.38;;;;;;;39.09;13.26;101685.22;5007345;28;20037;-68
2022/03/27 11:16:03;;;;;;;5.85;3.90;;;;;;;39.29;12.84;101679.16;5004852;28;20072;-69
2022/03/27 11:18:46;;;;;;;3.97;3.10;;;;;;;39.73;12.92;101665.47;5011934;28;20061;-69
2022/03/27 11:21:13;;;;;;;4.95;3.38;;;;;;;39.95;12.85;101675.63;5010719;28;20038;-69
2022/03/27 11:23:40;;;;;;;4.18;2.92;;;;;;;40.06;12.06;101665.06;5006799;28;20050;-71
2022/03/27 11:26:21;;;;;;;4.55;2.88;;;;;;;39.78;12.90;101665.31;5011793;28;20088;-69
2022/03/27 11:28:58;;;;;;;4.72;2.92;;;;;;;39.84;12.56;101657.72;5012340;28;20033;-69
2022/03/27 11:31:35;;;;;;;4.88;3.22;;;;;;;39.87;11.66;101659.84;5011515;28;20037;-69
2022/03/27 11:34:11;;;;;;;4.00;2.60;;;;;;;40.53;11.93;101670.78;5012644;28;20542;-67
2022/03/27 11:36:38;;;;;;;4.28;3.28;;;;;;;40.74;11.45;101660.66;5031429;28;20040;-67